sensor_id;sensor_type;location;lat;lon;timestamp;P1;durP1;ratioP1;P2;durP2;ratioP2
16634;SDS011;8431;52.458;9.998;2023-03-04T00:00:04;15.45;;;4.70;;
16634;SDS011;8431;52.458;9.998;2023-03-04T00:02:34;14.30;;;4.53;;
16634;SDS011;8431;52.458;9.998;2023-03-04T00:05:01;11.35;;;4.13;;
16634;SDS011;8431;52.458;9.998;2023-03-04T00:07:28;14.27;;;4.60;;
16634;SDS011;8431;52.458;9.998;2023-03-04T00:09:55;14.65;;;4.45;;
16634;SDS011;8431;52.458;9.998;2023-03-04T00:12:22;17.60;;;4.47;;
16634;SDS011;8431;52.458;9.998;2023-03-04T00:14:50;12.95;;;3.92;;
16634;SDS011;8431;52.458;9.998;2023-03-04T00:17:17;9.30;;;3.95;;
16634;SDS011;8431;52.458;9.998;2023-03-04T00:19:47;12.88;;;4.18;;
16634;SDS011;8431;52.458;9.998;2023-03-04T00:22:14;13.98;;;4.60;;
16634;SDS011;8431;52.458;9.998;2023-03-04T00:24:44;11.73;;;4.32;;
16634;SDS011;8431;52.458;9.998;2023-03-04T00:27:11;20.73;;;4.88;;
16634;SDS011;8431;52.458;9.998;2023-03-04T00:29:38;11.70;;;4.47;;
16634;SDS011;8431;52.458;9.998;2023-03-04T00:32:05;13.80;;;4.32;;
16634;SDS011;8431;52.458;9.998;2023-03-04T00:34:33;17.90;;;5.00;;
16634;SDS011;8431;52.458;9.998;2023-03-04T00:37:01;16.60;;;4.60;;
16634;SDS011;8431;52.458;9.998;2023-03-04T00:39:28;10.75;;;4.63;;
16634;SDS011;8431;52.458;9.998;2023-03-04T00:41:55;22.33;;;5.60;;
16634;SDS011;8431;52.458;9.998;2023-03-04T00:44:24;17.02;;;4.55;;
16634;SDS011;8431;52.458;9.998;2023-03-04T00:46:51;16.50;;;4.97;;
16634;SDS011;8431;52.458;9.998;2023-03-04T00:49:18;13.48;;;5.13;;
16634;SDS011;8431;52.458;9.998;2023-03-04T00:51:45;15.18;;;4.68;;
16634;SDS011;8431;52.458;9.998;2023-03-04T00:54:15;14.95;;;5.32;;
16634;SDS011;8431;52.458;9.998;2023-03-04T00:56:42;13.88;;;4.20;;
16634;SDS011;8431;52.458;9.998;2023-03-04T00:59:09;16.75;;;4.55;;
16634;SDS011;8431;52.458;9.998;2023-03-04T01:01:36;14.13;;;4.55;;
16634;SDS011;8431;52.458;9.998;2023-03-04T01:04:03;13.20;;;4.60;;
16634;SDS011;8431;52.458;9.998;2023-03-04T01:06:30;15.55;;;4.78;;
16634;SDS011;8431;52.458;9.998;2023-03-04T01:08:57;16.48;;;4.30;;
16634;SDS011;8431;52.458;9.998;2023-03-04T01:11:26;12.13;;;3.65;;
16634;SDS011;8431;52.458;9.998;2023-03-04T01:13:53;13.48;;;3.90;;
16634;SDS011;8431;52.458;9.998;2023-03-04T01:16:20;11.70;;;3.55;;
16634;SDS011;8431;52.458;9.998;2023-03-04T01:18:47;11.32;;;3.60;;
16634;SDS011;8431;52.458;9.998;2023-03-04T01:21:14;18.73;;;3.67;;
16634;SDS011;8431;52.458;9.998;2023-03-04T01:23:41;13.65;;;3.70;;
16634;SDS011;8431;52.458;9.998;2023-03-04T01:26:08;12.57;;;4.15;;
16634;SDS011;8431;52.458;9.998;2023-03-04T01:28:36;12.25;;;3.40;;
16634;SDS011;8431;52.458;9.998;2023-03-04T01:33:33;15.40;;;4.75;;
16634;SDS011;8431;52.458;9.998;2023-03-04T01:36:01;16.27;;;3.85;;
16634;SDS011;8431;52.458;9.998;2023-03-04T01:38:28;12.63;;;3.97;;
16634;SDS011;8431;52.458;9.998;2023-03-04T01:40:55;11.45;;;3.70;;
16634;SDS011;8431;52.458;9.998;2023-03-04T01:43:26;14.05;;;4.28;;
16634;SDS011;8431;52.458;9.998;2023-03-04T01:45:55;15.18;;;4.63;;
16634;SDS011;8431;52.458;9.998;2023-03-04T01:48:24;14.52;;;3.90;;
16634;SDS011;8431;52.458;9.998;2023-03-04T01:50:54;14.80;;;3.88;;
16634;SDS011;8431;52.458;9.998;2023-03-04T01:53:22;11.40;;;3.85;;
16634;SDS011;8431;52.458;9.998;2023-03-04T01:55:51;8.68;;;3.60;;
16634;SDS011;8431;52.458;9.998;2023-03-04T01:58:20;12.57;;;3.40;;
16634;SDS011;8431;52.458;9.998;2023-03-04T02:00:48;16.80;;;3.95;;
16634;SDS011;8431;52.458;9.998;2023-03-04T02:03:16;11.75;;;4.15;;
16634;SDS011;8431;52.458;9.998;2023-03-04T02:05:45;14.95;;;3.40;;
16634;SDS011;8431;52.458;9.998;2023-03-04T02:08:15;11.73;;;3.22;;
16634;SDS011;8431;52.458;9.998;2023-03-04T02:10:49;10.98;;;3.83;;
16634;SDS011;8431;52.458;9.998;2023-03-04T02:13:19;9.63;;;2.78;;
16634;SDS011;8431;52.458;9.998;2023-03-04T02:15:46;11.65;;;2.92;;
16634;SDS011;8431;52.458;9.998;2023-03-04T02:18:15;12.68;;;2.90;;
16634;SDS011;8431;52.458;9.998;2023-03-04T02:20:49;16.92;;;4.55;;
16634;SDS011;8431;52.458;9.998;2023-03-04T02:23:22;13.27;;;2.80;;
16634;SDS011;8431;52.458;9.998;2023-03-04T02:26:07;11.10;;;2.88;;
16634;SDS011;8431;52.458;9.998;2023-03-04T02:28:38;10.57;;;2.83;;
16634;SDS011;8431;52.458;9.998;2023-03-04T02:31:05;14.43;;;3.53;;
16634;SDS011;8431;52.458;9.998;2023-03-04T02:33:33;11.90;;;3.70;;
16634;SDS011;8431;52.458;9.998;2023-03-04T02:36:03;14.57;;;3.55;;
16634;SDS011;8431;52.458;9.998;2023-03-04T02:38:30;11.15;;;2.78;;
16634;SDS011;8431;52.458;9.998;2023-03-04T02:40:58;7.75;;;2.60;;
16634;SDS011;8431;52.458;9.998;2023-03-04T02:43:26;12.70;;;2.40;;
16634;SDS011;8431;52.458;9.998;2023-03-04T02:45:54;13.07;;;2.40;;
16634;SDS011;8431;52.458;9.998;2023-03-04T02:48:21;9.48;;;2.70;;
16634;SDS011;8431;52.458;9.998;2023-03-04T02:50:50;12.15;;;2.50;;
16634;SDS011;8431;52.458;9.998;2023-03-04T02:53:20;8.93;;;2.55;;
16634;SDS011;8431;52.458;9.998;2023-03-04T02:58:26;8.35;;;2.45;;
16634;SDS011;8431;52.458;9.998;2023-03-04T03:00:56;10.98;;;2.70;;
16634;SDS011;8431;52.458;9.998;2023-03-04T03:03:23;11.73;;;2.85;;
16634;SDS011;8431;52.458;9.998;2023-03-04T03:05:50;8.27;;;2.47;;
16634;SDS011;8431;52.458;9.998;2023-03-04T03:08:20;12.25;;;3.05;;
16634;SDS011;8431;52.458;9.998;2023-03-04T03:10:50;7.40;;;2.53;;
16634;SDS011;8431;52.458;9.998;2023-03-04T03:13:19;13.93;;;3.25;;
16634;SDS011;8431;52.458;9.998;2023-03-04T03:15:48;10.68;;;2.65;;
16634;SDS011;8431;52.458;9.998;2023-03-04T03:18:15;9.63;;;2.50;;
16634;SDS011;8431;52.458;9.998;2023-03-04T03:20:42;7.13;;;2.10;;
16634;SDS011;8431;52.458;9.998;2023-03-04T03:23:09;9.68;;;2.40;;
16634;SDS011;8431;52.458;9.998;2023-03-04T03:25:36;9.35;;;2.40;;
16634;SDS011;8431;52.458;9.998;2023-03-04T03:28:03;13.05;;;2.33;;
16634;SDS011;8431;52.458;9.998;2023-03-04T03:30:30;7.55;;;2.45;;
16634;SDS011;8431;52.458;9.998;2023-03-04T03:32:59;12.55;;;2.40;;
16634;SDS011;8431;52.458;9.998;2023-03-04T03:35:26;8.75;;;2.33;;
16634;SDS011;8431;52.458;9.998;2023-03-04T03:37:53;9.48;;;2.40;;
16634;SDS011;8431;52.458;9.998;2023-03-04T03:40:20;9.60;;;2.35;;
16634;SDS011;8431;52.458;9.998;2023-03-04T03:42:47;12.15;;;2.78;;
16634;SDS011;8431;52.458;9.998;2023-03-04T03:45:14;8.93;;;3.08;;
16634;SDS011;8431;52.458;9.998;2023-03-04T03:47:42;9.50;;;2.80;;
16634;SDS011;8431;52.458;9.998;2023-03-04T03:50:10;9.65;;;2.65;;
16634;SDS011;8431;52.458;9.998;2023-03-04T03:52:37;7.38;;;2.53;;
16634;SDS011;8431;52.458;9.998;2023-03-04T03:55:05;8.60;;;2.00;;
16634;SDS011;8431;52.458;9.998;2023-03-04T03:57:32;6.30;;;2.28;;
16634;SDS011;8431;52.458;9.998;2023-03-04T04:00:02;12.15;;;2.58;;
16634;SDS011;8431;52.458;9.998;2023-03-04T04:02:30;8.93;;;2.83;;
16634;SDS011;8431;52.458;9.998;2023-03-04T04:04:58;10.32;;;2.65;;
16634;SDS011;8431;52.458;9.998;2023-03-04T04:07:26;10.02;;;2.60;;
16634;SDS011;8431;52.458;9.998;2023-03-04T04:09:53;8.45;;;2.30;;
16634;SDS011;8431;52.458;9.998;2023-03-04T04:12:20;9.25;;;2.35;;
16634;SDS011;8431;52.458;9.998;2023-03-04T04:14:47;5.85;;;1.80;;
16634;SDS011;8431;52.458;9.998;2023-03-04T04:17:14;7.88;;;2.30;;
16634;SDS011;8431;52.458;9.998;2023-03-04T04:19:41;9.05;;;2.45;;
16634;SDS011;8431;52.458;9.998;2023-03-04T04:22:10;7.68;;;1.90;;
16634;SDS011;8431;52.458;9.998;2023-03-04T04:24:41;10.95;;;2.60;;
16634;SDS011;8431;52.458;9.998;2023-03-04T04:27:08;10.63;;;2.80;;
16634;SDS011;8431;52.458;9.998;2023-03-04T04:29:36;8.10;;;2.42;;
16634;SDS011;8431;52.458;9.998;2023-03-04T04:32:03;7.95;;;2.33;;
16634;SDS011;8431;52.458;9.998;2023-03-04T04:34:31;6.57;;;2.00;;
16634;SDS011;8431;52.458;9.998;2023-03-04T04:36:58;6.88;;;1.98;;
16634;SDS011;8431;52.458;9.998;2023-03-04T04:39:25;6.97;;;2.55;;
16634;SDS011;8431;52.458;9.998;2023-03-04T04:41:53;7.93;;;2.05;;
16634;SDS011;8431;52.458;9.998;2023-03-04T04:44:21;11.52;;;2.45;;
16634;SDS011;8431;52.458;9.998;2023-03-04T04:46:48;6.25;;;2.38;;
16634;SDS011;8431;52.458;9.998;2023-03-04T04:49:15;10.95;;;2.65;;
16634;SDS011;8431;52.458;9.998;2023-03-04T04:51:42;7.22;;;2.10;;
16634;SDS011;8431;52.458;9.998;2023-03-04T04:54:09;7.35;;;2.75;;
16634;SDS011;8431;52.458;9.998;2023-03-04T04:56:37;5.30;;;2.15;;
16634;SDS011;8431;52.458;9.998;2023-03-04T04:59:06;6.47;;;1.90;;
16634;SDS011;8431;52.458;9.998;2023-03-04T05:01:33;3.65;;;1.80;;
16634;SDS011;8431;52.458;9.998;2023-03-04T05:04:00;6.32;;;2.03;;
16634;SDS011;8431;52.458;9.998;2023-03-04T05:06:28;9.48;;;1.88;;
16634;SDS011;8431;52.458;9.998;2023-03-04T05:08:55;7.65;;;1.80;;
16634;SDS011;8431;52.458;9.998;2023-03-04T05:11:22;5.75;;;1.95;;
16634;SDS011;8431;52.458;9.998;2023-03-04T05:13:49;8.85;;;1.98;;
16634;SDS011;8431;52.458;9.998;2023-03-04T05:16:18;7.72;;;1.80;;
16634;SDS011;8431;52.458;9.998;2023-03-04T05:18:45;6.22;;;1.83;;
16634;SDS011;8431;52.458;9.998;2023-03-04T05:21:12;5.68;;;2.00;;
16634;SDS011;8431;52.458;9.998;2023-03-04T05:23:40;11.52;;;2.50;;
16634;SDS011;8431;52.458;9.998;2023-03-04T05:26:08;7.82;;;1.92;;
16634;SDS011;8431;52.458;9.998;2023-03-04T05:28:38;9.88;;;2.25;;
16634;SDS011;8431;52.458;9.998;2023-03-04T05:31:05;6.00;;;1.67;;
16634;SDS011;8431;52.458;9.998;2023-03-04T05:33:34;5.38;;;1.70;;
16634;SDS011;8431;52.458;9.998;2023-03-04T05:36:01;9.77;;;2.05;;
16634;SDS011;8431;52.458;9.998;2023-03-04T05:38:29;5.20;;;1.50;;
16634;SDS011;8431;52.458;9.998;2023-03-04T05:40:57;9.13;;;2.65;;
16634;SDS011;8431;52.458;9.998;2023-03-04T05:43:25;11.20;;;2.28;;
16634;SDS011;8431;52.458;9.998;2023-03-04T05:45:52;9.93;;;1.95;;
16634;SDS011;8431;52.458;9.998;2023-03-04T05:48:20;5.03;;;1.40;;
16634;SDS011;8431;52.458;9.998;2023-03-04T05:50:53;8.18;;;2.58;;
16634;SDS011;8431;52.458;9.998;2023-03-04T05:53:20;6.38;;;1.55;;
16634;SDS011;8431;52.458;9.998;2023-03-04T05:55:47;8.05;;;1.70;;
16634;SDS011;8431;52.458;9.998;2023-03-04T05:58:15;7.72;;;1.70;;
16634;SDS011;8431;52.458;9.998;2023-03-04T06:00:42;5.88;;;2.08;;
16634;SDS011;8431;52.458;9.998;2023-03-04T06:03:12;6.70;;;1.70;;
16634;SDS011;8431;52.458;9.998;2023-03-04T06:05:41;10.05;;;2.78;;
16634;SDS011;8431;52.458;9.998;2023-03-04T06:08:10;9.02;;;1.80;;
16634;SDS011;8431;52.458;9.998;2023-03-04T06:10:37;8.50;;;2.47;;
16634;SDS011;8431;52.458;9.998;2023-03-04T06:13:05;9.73;;;1.92;;
16634;SDS011;8431;52.458;9.998;2023-03-04T06:15:32;8.80;;;2.03;;
16634;SDS011;8431;52.458;9.998;2023-03-04T06:18:00;6.68;;;1.90;;
16634;SDS011;8431;52.458;9.998;2023-03-04T06:20:27;10.85;;;2.38;;
16634;SDS011;8431;52.458;9.998;2023-03-04T06:22:54;5.20;;;2.17;;
16634;SDS011;8431;52.458;9.998;2023-03-04T06:25:22;7.00;;;2.33;;
16634;SDS011;8431;52.458;9.998;2023-03-04T06:27:49;6.90;;;2.33;;
16634;SDS011;8431;52.458;9.998;2023-03-04T06:30:17;6.30;;;2.03;;
16634;SDS011;8431;52.458;9.998;2023-03-04T06:32:44;6.57;;;1.83;;
16634;SDS011;8431;52.458;9.998;2023-03-04T06:35:20;8.65;;;2.17;;
16634;SDS011;8431;52.458;9.998;2023-03-04T06:37:48;9.63;;;2.17;;
16634;SDS011;8431;52.458;9.998;2023-03-04T06:40:15;9.10;;;2.17;;
16634;SDS011;8431;52.458;9.998;2023-03-04T06:42:43;8.05;;;2.13;;
16634;SDS011;8431;52.458;9.998;2023-03-04T06:45:11;6.75;;;2.15;;
16634;SDS011;8431;52.458;9.998;2023-03-04T06:47:38;8.75;;;2.30;;
16634;SDS011;8431;52.458;9.998;2023-03-04T06:50:05;4.70;;;1.90;;
16634;SDS011;8431;52.458;9.998;2023-03-04T06:52:36;10.07;;;2.65;;
16634;SDS011;8431;52.458;9.998;2023-03-04T06:55:03;7.88;;;2.10;;
16634;SDS011;8431;52.458;9.998;2023-03-04T06:57:34;6.57;;;2.60;;
16634;SDS011;8431;52.458;9.998;2023-03-04T07:00:05;4.45;;;2.47;;
16634;SDS011;8431;52.458;9.998;2023-03-04T07:02:34;15.98;;;2.35;;
16634;SDS011;8431;52.458;9.998;2023-03-04T07:05:01;4.88;;;1.80;;
16634;SDS011;8431;52.458;9.998;2023-03-04T07:07:28;9.10;;;2.30;;
16634;SDS011;8431;52.458;9.998;2023-03-04T07:09:55;7.10;;;2.05;;
16634;SDS011;8431;52.458;9.998;2023-03-04T07:12:22;10.18;;;2.38;;
16634;SDS011;8431;52.458;9.998;2023-03-04T07:14:50;8.95;;;2.30;;
16634;SDS011;8431;52.458;9.998;2023-03-04T07:17:18;7.22;;;2.00;;
16634;SDS011;8431;52.458;9.998;2023-03-04T07:19:45;6.45;;;2.08;;
16634;SDS011;8431;52.458;9.998;2023-03-04T07:22:12;5.55;;;2.25;;
16634;SDS011;8431;52.458;9.998;2023-03-04T07:24:39;5.22;;;2.25;;
16634;SDS011;8431;52.458;9.998;2023-03-04T07:27:06;5.00;;;2.42;;
16634;SDS011;8431;52.458;9.998;2023-03-04T07:29:33;13.32;;;2.83;;
16634;SDS011;8431;52.458;9.998;2023-03-04T07:32:00;6.53;;;2.42;;
16634;SDS011;8431;52.458;9.998;2023-03-04T07:34:29;9.43;;;2.42;;
16634;SDS011;8431;52.458;9.998;2023-03-04T07:36:56;5.05;;;2.05;;
16634;SDS011;8431;52.458;9.998;2023-03-04T07:39:23;6.15;;;2.28;;
16634;SDS011;8431;52.458;9.998;2023-03-04T07:41:50;4.72;;;2.25;;
16634;SDS011;8431;52.458;9.998;2023-03-04T07:44:17;5.32;;;2.50;;
16634;SDS011;8431;52.458;9.998;2023-03-04T07:46:45;4.80;;;2.42;;
16634;SDS011;8431;52.458;9.998;2023-03-04T07:49:15;6.65;;;2.42;;
16634;SDS011;8431;52.458;9.998;2023-03-04T07:51:44;6.53;;;2.45;;
16634;SDS011;8431;52.458;9.998;2023-03-04T07:54:11;3.15;;;2.28;;
16634;SDS011;8431;52.458;9.998;2023-03-04T07:56:38;7.32;;;2.15;;
16634;SDS011;8431;52.458;9.998;2023-03-04T07:59:05;6.68;;;2.50;;
16634;SDS011;8431;52.458;9.998;2023-03-04T08:01:33;7.15;;;2.80;;
16634;SDS011;8431;52.458;9.998;2023-03-04T08:04:01;11.68;;;2.60;;
16634;SDS011;8431;52.458;9.998;2023-03-04T08:06:29;4.88;;;2.75;;
16634;SDS011;8431;52.458;9.998;2023-03-04T08:08:59;6.72;;;2.50;;
16634;SDS011;8431;52.458;9.998;2023-03-04T08:11:28;3.70;;;2.28;;
16634;SDS011;8431;52.458;9.998;2023-03-04T08:13:55;7.47;;;2.63;;
16634;SDS011;8431;52.458;9.998;2023-03-04T08:16:23;7.30;;;3.30;;
16634;SDS011;8431;52.458;9.998;2023-03-04T08:18:52;6.18;;;2.30;;
16634;SDS011;8431;52.458;9.998;2023-03-04T08:21:21;9.15;;;3.55;;
16634;SDS011;8431;52.458;9.998;2023-03-04T08:23:49;8.38;;;2.55;;
16634;SDS011;8431;52.458;9.998;2023-03-04T08:26:23;12.13;;;2.80;;
16634;SDS011;8431;52.458;9.998;2023-03-04T08:28:53;5.32;;;2.63;;
16634;SDS011;8431;52.458;9.998;2023-03-04T08:31:21;10.45;;;2.80;;
16634;SDS011;8431;52.458;9.998;2023-03-04T08:33:48;10.80;;;3.00;;
16634;SDS011;8431;52.458;9.998;2023-03-04T08:36:17;5.43;;;2.55;;
16634;SDS011;8431;52.458;9.998;2023-03-04T08:38:47;5.25;;;2.15;;
16634;SDS011;8431;52.458;9.998;2023-03-04T08:41:14;3.97;;;2.35;;
16634;SDS011;8431;52.458;9.998;2023-03-04T08:43:43;4.68;;;2.60;;
16634;SDS011;8431;52.458;9.998;2023-03-04T08:46:10;8.07;;;2.63;;
16634;SDS011;8431;52.458;9.998;2023-03-04T08:48:37;4.85;;;2.47;;
16634;SDS011;8431;52.458;9.998;2023-03-04T08:51:08;5.05;;;2.80;;
16634;SDS011;8431;52.458;9.998;2023-03-04T08:53:36;6.20;;;2.60;;
16634;SDS011;8431;52.458;9.998;2023-03-04T08:56:03;4.88;;;2.22;;
16634;SDS011;8431;52.458;9.998;2023-03-04T08:58:31;5.60;;;2.40;;
16634;SDS011;8431;52.458;9.998;2023-03-04T09:01:00;6.28;;;2.50;;
16634;SDS011;8431;52.458;9.998;2023-03-04T09:03:27;7.15;;;2.97;;
16634;SDS011;8431;52.458;9.998;2023-03-04T09:05:54;7.93;;;2.38;;
16634;SDS011;8431;52.458;9.998;2023-03-04T09:08:21;5.75;;;2.30;;
16634;SDS011;8431;52.458;9.998;2023-03-04T09:10:51;4.70;;;2.47;;
16634;SDS011;8431;52.458;9.998;2023-03-04T09:13:19;5.80;;;2.47;;
16634;SDS011;8431;52.458;9.998;2023-03-04T09:15:48;8.63;;;2.50;;
16634;SDS011;8431;52.458;9.998;2023-03-04T09:18:18;7.43;;;2.33;;
16634;SDS011;8431;52.458;9.998;2023-03-04T09:20:46;8.02;;;2.72;;
16634;SDS011;8431;52.458;9.998;2023-03-04T09:23:13;7.78;;;2.75;;
16634;SDS011;8431;52.458;9.998;2023-03-04T09:25:41;7.75;;;2.90;;
16634;SDS011;8431;52.458;9.998;2023-03-04T09:28:10;9.45;;;2.90;;
16634;SDS011;8431;52.458;9.998;2023-03-04T09:30:38;9.25;;;2.63;;
16634;SDS011;8431;52.458;9.998;2023-03-04T09:33:05;7.38;;;2.60;;
16634;SDS011;8431;52.458;9.998;2023-03-04T09:35:34;7.60;;;2.55;;
16634;SDS011;8431;52.458;9.998;2023-03-04T09:38:01;7.25;;;3.03;;
16634;SDS011;8431;52.458;9.998;2023-03-04T09:40:29;7.38;;;2.40;;
16634;SDS011;8431;52.458;9.998;2023-03-04T09:43:03;7.63;;;2.42;;
16634;SDS011;8431;52.458;9.998;2023-03-04T09:45:33;6.53;;;2.25;;
16634;SDS011;8431;52.458;9.998;2023-03-04T09:48:03;6.68;;;2.35;;
16634;SDS011;8431;52.458;9.998;2023-03-04T09:50:33;4.20;;;2.17;;
16634;SDS011;8431;52.458;9.998;2023-03-04T09:53:06;5.75;;;2.30;;
16634;SDS011;8431;52.458;9.998;2023-03-04T09:55:44;11.57;;;2.38;;
16634;SDS011;8431;52.458;9.998;2023-03-04T09:58:20;11.38;;;2.40;;
16634;SDS011;8431;52.458;9.998;2023-03-04T10:00:54;6.70;;;2.35;;
16634;SDS011;8431;52.458;9.998;2023-03-04T10:03:24;11.32;;;3.35;;
16634;SDS011;8431;52.458;9.998;2023-03-04T10:06:09;10.02;;;3.20;;
16634;SDS011;8431;52.458;9.998;2023-03-04T10:08:40;15.25;;;3.03;;
16634;SDS011;8431;52.458;9.998;2023-03-04T10:11:13;6.50;;;3.00;;
16634;SDS011;8431;52.458;9.998;2023-03-04T10:13:49;9.57;;;2.67;;
16634;SDS011;8431;52.458;9.998;2023-03-04T10:16:24;11.23;;;3.40;;
16634;SDS011;8431;52.458;9.998;2023-03-04T10:18:55;8.00;;;2.97;;
16634;SDS011;8431;52.458;9.998;2023-03-04T10:21:30;11.10;;;2.70;;
16634;SDS011;8431;52.458;9.998;2023-03-04T10:24:04;10.00;;;2.88;;
16634;SDS011;8431;52.458;9.998;2023-03-04T10:26:36;12.15;;;3.50;;
16634;SDS011;8431;52.458;9.998;2023-03-04T10:29:03;7.18;;;2.72;;
16634;SDS011;8431;52.458;9.998;2023-03-04T10:31:34;10.75;;;3.10;;
16634;SDS011;8431;52.458;9.998;2023-03-04T10:34:02;9.93;;;3.10;;
16634;SDS011;8431;52.458;9.998;2023-03-04T10:36:35;10.13;;;3.45;;
16634;SDS011;8431;52.458;9.998;2023-03-04T10:39:10;14.95;;;3.90;;
16634;SDS011;8431;52.458;9.998;2023-03-04T10:41:40;10.07;;;3.33;;
16634;SDS011;8431;52.458;9.998;2023-03-04T10:44:13;14.38;;;3.00;;
16634;SDS011;8431;52.458;9.998;2023-03-04T10:46:42;9.82;;;2.83;;
16634;SDS011;8431;52.458;9.998;2023-03-04T10:49:10;10.25;;;3.83;;
16634;SDS011;8431;52.458;9.998;2023-03-04T10:51:42;5.97;;;2.30;;
16634;SDS011;8431;52.458;9.998;2023-03-04T10:56:54;9.07;;;1.88;;
16634;SDS011;8431;52.458;9.998;2023-03-04T11:02:24;9.80;;;2.40;;
16634;SDS011;8431;52.458;9.998;2023-03-04T11:04:54;10.50;;;2.53;;
16634;SDS011;8431;52.458;9.998;2023-03-04T11:07:35;4.25;;;1.45;;
16634;SDS011;8431;52.458;9.998;2023-03-04T11:10:09;4.85;;;1.52;;
16634;SDS011;8431;52.458;9.998;2023-03-04T11:12:39;3.50;;;1.45;;
16634;SDS011;8431;52.458;9.998;2023-03-04T11:15:15;6.30;;;2.05;;
16634;SDS011;8431;52.458;9.998;2023-03-04T11:17:46;9.32;;;2.10;;
16634;SDS011;8431;52.458;9.998;2023-03-04T11:20:17;11.55;;;2.63;;
16634;SDS011;8431;52.458;9.998;2023-03-04T11:22:54;9.85;;;2.38;;
16634;SDS011;8431;52.458;9.998;2023-03-04T11:25:27;8.55;;;2.20;;
16634;SDS011;8431;52.458;9.998;2023-03-04T11:28:00;7.55;;;1.70;;
16634;SDS011;8431;52.458;9.998;2023-03-04T11:30:33;9.88;;;2.15;;
16634;SDS011;8431;52.458;9.998;2023-03-04T11:33:07;7.10;;;1.60;;
16634;SDS011;8431;52.458;9.998;2023-03-04T11:35:43;9.00;;;1.85;;
16634;SDS011;8431;52.458;9.998;2023-03-04T11:38:20;11.02;;;2.40;;
16634;SDS011;8431;52.458;9.998;2023-03-04T11:40:51;6.90;;;1.90;;
16634;SDS011;8431;52.458;9.998;2023-03-04T11:43:23;7.63;;;1.75;;
16634;SDS011;8431;52.458;9.998;2023-03-04T11:46:01;7.45;;;1.95;;
16634;SDS011;8431;52.458;9.998;2023-03-04T11:49:06;4.28;;;1.42;;
16634;SDS011;8431;52.458;9.998;2023-03-04T11:51:48;7.28;;;2.03;;
16634;SDS011;8431;52.458;9.998;2023-03-04T11:54:26;7.55;;;2.10;;
16634;SDS011;8431;52.458;9.998;2023-03-04T11:57:02;9.05;;;1.80;;
16634;SDS011;8431;52.458;9.998;2023-03-04T11:59:43;6.20;;;1.85;;
16634;SDS011;8431;52.458;9.998;2023-03-04T12:02:19;5.88;;;1.63;;
16634;SDS011;8431;52.458;9.998;2023-03-04T12:04:58;8.27;;;1.83;;
16634;SDS011;8431;52.458;9.998;2023-03-04T12:07:53;7.38;;;1.63;;
16634;SDS011;8431;52.458;9.998;2023-03-04T12:10:37;5.20;;;1.88;;
16634;SDS011;8431;52.458;9.998;2023-03-04T12:16:28;6.65;;;1.88;;
16634;SDS011;8431;52.458;9.998;2023-03-04T12:19:13;8.30;;;2.20;;
16634;SDS011;8431;52.458;9.998;2023-03-04T12:21:52;5.82;;;2.10;;
16634;SDS011;8431;52.458;9.998;2023-03-04T12:24:52;9.50;;;2.40;;
16634;SDS011;8431;52.458;9.998;2023-03-04T12:27:44;7.32;;;2.50;;
16634;SDS011;8431;52.458;9.998;2023-03-04T12:30:23;7.45;;;2.28;;
16634;SDS011;8431;52.458;9.998;2023-03-04T12:33:05;4.95;;;2.00;;
16634;SDS011;8431;52.458;9.998;2023-03-04T12:35:44;7.28;;;1.80;;
16634;SDS011;8431;52.458;9.998;2023-03-04T12:41:38;7.78;;;1.85;;
16634;SDS011;8431;52.458;9.998;2023-03-04T12:44:14;5.47;;;2.28;;
16634;SDS011;8431;52.458;9.998;2023-03-04T12:47:01;7.75;;;2.25;;
16634;SDS011;8431;52.458;9.998;2023-03-04T12:49:50;6.22;;;1.80;;
16634;SDS011;8431;52.458;9.998;2023-03-04T12:52:25;8.95;;;1.92;;
16634;SDS011;8431;52.458;9.998;2023-03-04T12:55:07;7.35;;;2.13;;
16634;SDS011;8431;52.458;9.998;2023-03-04T12:57:37;6.22;;;1.73;;
16634;SDS011;8431;52.458;9.998;2023-03-04T13:00:08;6.13;;;2.05;;
16634;SDS011;8431;52.458;9.998;2023-03-04T13:02:58;5.22;;;2.08;;
16634;SDS011;8431;52.458;9.998;2023-03-04T13:05:41;7.10;;;2.60;;
16634;SDS011;8431;52.458;9.998;2023-03-04T13:08:26;4.93;;;1.73;;
16634;SDS011;8431;52.458;9.998;2023-03-04T13:11:00;9.82;;;2.00;;
16634;SDS011;8431;52.458;9.998;2023-03-04T13:13:38;7.55;;;2.40;;
16634;SDS011;8431;52.458;9.998;2023-03-04T13:16:26;8.02;;;2.35;;
16634;SDS011;8431;52.458;9.998;2023-03-04T13:18:56;6.97;;;2.00;;
16634;SDS011;8431;52.458;9.998;2023-03-04T13:21:24;10.48;;;2.47;;
16634;SDS011;8431;52.458;9.998;2023-03-04T13:23:53;10.27;;;3.78;;
16634;SDS011;8431;52.458;9.998;2023-03-04T13:26:26;8.23;;;2.15;;
16634;SDS011;8431;52.458;9.998;2023-03-04T13:32:01;6.93;;;1.88;;
16634;SDS011;8431;52.458;9.998;2023-03-04T13:34:40;5.07;;;1.75;;
16634;SDS011;8431;52.458;9.998;2023-03-04T13:37:21;6.43;;;2.17;;
16634;SDS011;8431;52.458;9.998;2023-03-04T13:42:52;15.43;;;3.85;;
16634;SDS011;8431;52.458;9.998;2023-03-04T13:45:33;9.00;;;2.25;;
16634;SDS011;8431;52.458;9.998;2023-03-04T13:48:03;5.07;;;2.10;;
16634;SDS011;8431;52.458;9.998;2023-03-04T13:50:48;4.03;;;1.35;;
16634;SDS011;8431;52.458;9.998;2023-03-04T13:53:21;5.10;;;1.73;;
16634;SDS011;8431;52.458;9.998;2023-03-04T13:56:06;9.95;;;2.63;;
16634;SDS011;8431;52.458;9.998;2023-03-04T13:58:39;8.25;;;3.30;;
16634;SDS011;8431;52.458;9.998;2023-03-04T14:01:17;14.23;;;6.75;;
16634;SDS011;8431;52.458;9.998;2023-03-04T14:03:53;11.77;;;3.92;;
16634;SDS011;8431;52.458;9.998;2023-03-04T14:06:21;8.02;;;3.63;;
16634;SDS011;8431;52.458;9.998;2023-03-04T14:08:50;9.50;;;2.60;;
16634;SDS011;8431;52.458;9.998;2023-03-04T14:11:23;6.32;;;2.00;;
16634;SDS011;8431;52.458;9.998;2023-03-04T14:13:53;11.73;;;2.55;;
16634;SDS011;8431;52.458;9.998;2023-03-04T14:16:25;9.18;;;2.75;;
16634;SDS011;8431;52.458;9.998;2023-03-04T14:18:59;8.38;;;2.45;;
16634;SDS011;8431;52.458;9.998;2023-03-04T14:21:27;8.18;;;2.72;;
16634;SDS011;8431;52.458;9.998;2023-03-04T14:24:00;6.40;;;1.73;;
16634;SDS011;8431;52.458;9.998;2023-03-04T14:26:29;8.95;;;2.92;;
16634;SDS011;8431;52.458;9.998;2023-03-04T14:28:57;7.57;;;2.83;;
16634;SDS011;8431;52.458;9.998;2023-03-04T14:31:27;8.75;;;2.75;;
16634;SDS011;8431;52.458;9.998;2023-03-04T14:33:56;11.40;;;2.58;;
16634;SDS011;8431;52.458;9.998;2023-03-04T14:36:29;12.25;;;3.30;;
16634;SDS011;8431;52.458;9.998;2023-03-04T14:38:58;6.97;;;2.22;;
16634;SDS011;8431;52.458;9.998;2023-03-04T14:41:28;11.95;;;2.60;;
16634;SDS011;8431;52.458;9.998;2023-03-04T14:44:01;11.73;;;2.70;;
16634;SDS011;8431;52.458;9.998;2023-03-04T14:46:31;11.77;;;2.65;;
16634;SDS011;8431;52.458;9.998;2023-03-04T14:49:03;13.32;;;2.28;;
16634;SDS011;8431;52.458;9.998;2023-03-04T14:51:31;9.07;;;2.17;;
16634;SDS011;8431;52.458;9.998;2023-03-04T14:54:05;11.00;;;2.75;;
16634;SDS011;8431;52.458;9.998;2023-03-04T14:56:49;10.10;;;2.30;;
16634;SDS011;8431;52.458;9.998;2023-03-04T14:59:16;12.38;;;2.35;;
16634;SDS011;8431;52.458;9.998;2023-03-04T15:01:52;10.70;;;2.65;;
16634;SDS011;8431;52.458;9.998;2023-03-04T15:04:21;8.50;;;2.38;;
16634;SDS011;8431;52.458;9.998;2023-03-04T15:06:48;9.05;;;3.05;;
16634;SDS011;8431;52.458;9.998;2023-03-04T15:09:17;11.90;;;3.47;;
16634;SDS011;8431;52.458;9.998;2023-03-04T15:11:47;9.43;;;2.85;;
16634;SDS011;8431;52.458;9.998;2023-03-04T15:17:22;14.52;;;3.17;;
16634;SDS011;8431;52.458;9.998;2023-03-04T15:19:58;10.13;;;2.63;;
16634;SDS011;8431;52.458;9.998;2023-03-04T15:22:27;9.80;;;2.30;;
16634;SDS011;8431;52.458;9.998;2023-03-04T15:24:54;11.95;;;2.60;;
16634;SDS011;8431;52.458;9.998;2023-03-04T15:27:21;13.93;;;2.33;;
16634;SDS011;8431;52.458;9.998;2023-03-04T15:29:52;8.70;;;2.25;;
16634;SDS011;8431;52.458;9.998;2023-03-04T15:32:23;10.32;;;2.78;;
16634;SDS011;8431;52.458;9.998;2023-03-04T15:34:50;8.52;;;2.17;;
16634;SDS011;8431;52.458;9.998;2023-03-04T15:37:20;10.45;;;2.15;;
16634;SDS011;8431;52.458;9.998;2023-03-04T15:39:49;13.48;;;2.67;;